sensor_id;sensor_type;location;lat;lon;timestamp;temperature;humidity
15111;DHT22;7656;51.954;7.998;2023-07-13T00:02:27;19.10;99.90
15111;DHT22;7656;51.954;7.998;2023-07-13T00:06:48;19.10;99.90
15111;DHT22;7656;51.954;7.998;2023-07-13T00:11:11;19.00;99.90
15111;DHT22;7656;51.954;7.998;2023-07-13T00:15:32;19.10;99.90
15111;DHT22;7656;51.954;7.998;2023-07-13T00:19:54;19.00;99.90
15111;DHT22;7656;51.954;7.998;2023-07-13T00:24:18;19.10;99.90
15111;DHT22;7656;51.954;7.998;2023-07-13T00:28:44;19.20;99.90
15111;DHT22;7656;51.954;7.998;2023-07-13T00:33:05;19.10;99.90
15111;DHT22;7656;51.954;7.998;2023-07-13T00:37:26;19.00;99.90
15111;DHT22;7656;51.954;7.998;2023-07-13T00:41:47;19.10;99.90
15111;DHT22;7656;51.954;7.998;2023-07-13T00:46:23;19.00;99.90
15111;DHT22;7656;51.954;7.998;2023-07-13T00:50:48;18.90;99.90
15111;DHT22;7656;51.954;7.998;2023-07-13T00:55:13;18.80;99.90
15111;DHT22;7656;51.954;7.998;2023-07-13T00:59:35;18.90;99.90
15111;DHT22;7656;51.954;7.998;2023-07-13T01:03:57;19.00;99.90
15111;DHT22;7656;51.954;7.998;2023-07-13T01:08:21;19.00;99.90
15111;DHT22;7656;51.954;7.998;2023-07-13T01:12:42;19.10;99.90
15111;DHT22;7656;51.954;7.998;2023-07-13T01:17:04;19.00;99.90
15111;DHT22;7656;51.954;7.998;2023-07-13T01:21:27;18.90;99.90
15111;DHT22;7656;51.954;7.998;2023-07-13T01:25:49;18.80;99.90
15111;DHT22;7656;51.954;7.998;2023-07-13T01:30:10;18.70;99.90
15111;DHT22;7656;51.954;7.998;2023-07-13T01:34:31;18.60;99.90
15111;DHT22;7656;51.954;7.998;2023-07-13T01:38:52;18.50;99.90
15111;DHT22;7656;51.954;7.998;2023-07-13T01:43:14;18.30;99.90
15111;DHT22;7656;51.954;7.998;2023-07-13T01:47:35;18.10;99.90
15111;DHT22;7656;51.954;7.998;2023-07-13T01:51:56;18.00;99.90
15111;DHT22;7656;51.954;7.998;2023-07-13T01:56:18;17.90;99.90
15111;DHT22;7656;51.954;7.998;2023-07-13T02:00:40;17.70;99.90
15111;DHT22;7656;51.954;7.998;2023-07-13T02:05:01;17.50;99.90
15111;DHT22;7656;51.954;7.998;2023-07-13T02:09:22;17.40;99.90
15111;DHT22;7656;51.954;7.998;2023-07-13T02:13:44;17.40;99.90
15111;DHT22;7656;51.954;7.998;2023-07-13T02:18:05;17.40;99.90
15111;DHT22;7656;51.954;7.998;2023-07-13T02:22:26;17.20;99.90
15111;DHT22;7656;51.954;7.998;2023-07-13T02:26:47;17.30;99.90
15111;DHT22;7656;51.954;7.998;2023-07-13T02:31:11;17.20;99.90
15111;DHT22;7656;51.954;7.998;2023-07-13T02:35:33;17.20;99.90
15111;DHT22;7656;51.954;7.998;2023-07-13T02:39:54;17.10;99.90
15111;DHT22;7656;51.954;7.998;2023-07-13T02:44:17;17.00;99.90
15111;DHT22;7656;51.954;7.998;2023-07-13T02:48:39;17.10;99.90
15111;DHT22;7656;51.954;7.998;2023-07-13T02:53:00;16.90;99.90
15111;DHT22;7656;51.954;7.998;2023-07-13T02:57:21;16.90;99.90
15111;DHT22;7656;51.954;7.998;2023-07-13T03:01:42;16.80;99.90
15111;DHT22;7656;51.954;7.998;2023-07-13T03:06:04;16.70;99.90
15111;DHT22;7656;51.954;7.998;2023-07-13T03:10:34;16.60;99.90
15111;DHT22;7656;51.954;7.998;2023-07-13T03:14:55;16.60;99.90
15111;DHT22;7656;51.954;7.998;2023-07-13T03:19:19;16.70;99.90
15111;DHT22;7656;51.954;7.998;2023-07-13T03:23:44;16.60;99.90
15111;DHT22;7656;51.954;7.998;2023-07-13T03:28:05;16.40;99.90
15111;DHT22;7656;51.954;7.998;2023-07-13T03:32:28;16.50;99.90
15111;DHT22;7656;51.954;7.998;2023-07-13T03:36:49;16.50;99.90
15111;DHT22;7656;51.954;7.998;2023-07-13T03:41:10;16.60;99.90
15111;DHT22;7656;51.954;7.998;2023-07-13T03:45:31;16.50;99.90
15111;DHT22;7656;51.954;7.998;2023-07-13T03:49:53;16.50;99.90
15111;DHT22;7656;51.954;7.998;2023-07-13T03:54:15;16.50;99.90
15111;DHT22;7656;51.954;7.998;2023-07-13T03:58:39;16.50;99.90
15111;DHT22;7656;51.954;7.998;2023-07-13T04:03:19;16.50;99.90
15111;DHT22;7656;51.954;7.998;2023-07-13T04:07:40;16.50;99.90
15111;DHT22;7656;51.954;7.998;2023-07-13T04:12:02;16.40;99.90
15111;DHT22;7656;51.954;7.998;2023-07-13T04:16:23;16.50;99.90
15111;DHT22;7656;51.954;7.998;2023-07-13T04:20:49;16.50;99.90
15111;DHT22;7656;51.954;7.998;2023-07-13T04:25:11;16.60;99.90
15111;DHT22;7656;51.954;7.998;2023-07-13T04:29:32;16.70;99.90
15111;DHT22;7656;51.954;7.998;2023-07-13T04:33:53;16.80;99.90
15111;DHT22;7656;51.954;7.998;2023-07-13T04:38:14;16.70;99.90
15111;DHT22;7656;51.954;7.998;2023-07-13T04:42:36;16.90;99.90
15111;DHT22;7656;51.954;7.998;2023-07-13T04:46:57;17.10;99.90
15111;DHT22;7656;51.954;7.998;2023-07-13T04:51:19;17.10;99.90
15111;DHT22;7656;51.954;7.998;2023-07-13T04:55:40;17.20;99.90
15111;DHT22;7656;51.954;7.998;2023-07-13T05:00:02;17.20;99.90
15111;DHT22;7656;51.954;7.998;2023-07-13T05:04:25;17.30;99.90
15111;DHT22;7656;51.954;7.998;2023-07-13T05:08:46;17.40;99.90
15111;DHT22;7656;51.954;7.998;2023-07-13T05:13:07;17.40;99.90
15111;DHT22;7656;51.954;7.998;2023-07-13T05:17:29;17.30;99.90
15111;DHT22;7656;51.954;7.998;2023-07-13T05:21:50;17.40;99.90
15111;DHT22;7656;51.954;7.998;2023-07-13T05:26:11;17.40;99.90
15111;DHT22;7656;51.954;7.998;2023-07-13T05:30:32;17.50;99.90
15111;DHT22;7656;51.954;7.998;2023-07-13T05:34:54;17.60;99.90
15111;DHT22;7656;51.954;7.998;2023-07-13T05:39:16;17.80;99.90
15111;DHT22;7656;51.954;7.998;2023-07-13T05:43:37;17.90;99.90
15111;DHT22;7656;51.954;7.998;2023-07-13T05:47:58;18.00;99.90
15111;DHT22;7656;51.954;7.998;2023-07-13T05:52:19;18.10;99.90
15111;DHT22;7656;51.954;7.998;2023-07-13T05:56:40;18.20;99.90
15111;DHT22;7656;51.954;7.998;2023-07-13T06:01:07;18.40;99.90
15111;DHT22;7656;51.954;7.998;2023-07-13T06:05:31;18.30;99.90
15111;DHT22;7656;51.954;7.998;2023-07-13T06:09:52;18.20;99.90
15111;DHT22;7656;51.954;7.998;2023-07-13T06:14:13;18.70;99.90
15111;DHT22;7656;51.954;7.998;2023-07-13T06:18:35;18.90;99.90
15111;DHT22;7656;51.954;7.998;2023-07-13T06:22:57;19.30;99.90
15111;DHT22;7656;51.954;7.998;2023-07-13T06:27:18;19.70;99.90
15111;DHT22;7656;51.954;7.998;2023-07-13T06:31:39;19.90;99.90
15111;DHT22;7656;51.954;7.998;2023-07-13T06:36:01;19.80;99.90
15111;DHT22;7656;51.954;7.998;2023-07-13T06:40:23;20.20;99.90
15111;DHT22;7656;51.954;7.998;2023-07-13T07:58:59;32.00;93.90
15111;DHT22;7656;51.954;7.998;2023-07-13T08:03:20;31.80;94.70
15111;DHT22;7656;51.954;7.998;2023-07-13T08:07:41;31.30;95.10
15111;DHT22;7656;51.954;7.998;2023-07-13T08:12:02;30.90;95.70
15111;DHT22;7656;51.954;7.998;2023-07-13T08:20:45;32.20;94.20
15111;DHT22;7656;51.954;7.998;2023-07-13T08:47:07;32.70;91.80
15111;DHT22;7656;51.954;7.998;2023-07-13T08:51:43;32.30;92.00
15111;DHT22;7656;51.954;7.998;2023-07-13T09:19:08;30.30;91.40
15111;DHT22;7656;51.954;7.998;2023-07-13T09:23:43;29.70;92.90
15111;DHT22;7656;51.954;7.998;2023-07-13T09:28:22;28.80;94.40
15111;DHT22;7656;51.954;7.998;2023-07-13T09:32:50;28.50;95.20
15111;DHT22;7656;51.954;7.998;2023-07-13T09:37:12;28.40;96.40
15111;DHT22;7656;51.954;7.998;2023-07-13T09:41:40;28.10;95.60
15111;DHT22;7656;51.954;7.998;2023-07-13T09:46:20;27.70;96.30
15111;DHT22;7656;51.954;7.998;2023-07-13T09:50:43;26.80;98.40
15111;DHT22;7656;51.954;7.998;2023-07-13T09:55:27;27.10;98.40
15111;DHT22;7656;51.954;7.998;2023-07-13T09:59:52;27.10;96.70
15111;DHT22;7656;51.954;7.998;2023-07-13T10:04:18;27.10;97.50
15111;DHT22;7656;51.954;7.998;2023-07-13T10:08:40;26.70;97.60
15111;DHT22;7656;51.954;7.998;2023-07-13T10:13:02;26.40;98.40
15111;DHT22;7656;51.954;7.998;2023-07-13T10:17:29;26.40;98.60
15111;DHT22;7656;51.954;7.998;2023-07-13T10:22:09;26.70;99.90
15111;DHT22;7656;51.954;7.998;2023-07-13T10:31:31;26.80;99.90
15111;DHT22;7656;51.954;7.998;2023-07-13T10:35:57;26.80;99.70
15111;DHT22;7656;51.954;7.998;2023-07-13T10:40:35;26.60;98.60
15111;DHT22;7656;51.954;7.998;2023-07-13T10:45:00;26.40;99.60
15111;DHT22;7656;51.954;7.998;2023-07-13T10:49:22;25.90;99.90
15111;DHT22;7656;51.954;7.998;2023-07-13T10:53:43;26.10;99.90
15111;DHT22;7656;51.954;7.998;2023-07-13T11:02:41;27.10;97.70
15111;DHT22;7656;51.954;7.998;2023-07-13T11:07:18;27.00;97.70
15111;DHT22;7656;51.954;7.998;2023-07-13T11:11:41;27.00;96.90
15111;DHT22;7656;51.954;7.998;2023-07-13T11:20:37;26.70;97.90
15111;DHT22;7656;51.954;7.998;2023-07-13T11:25:02;27.10;98.60
15111;DHT22;7656;51.954;7.998;2023-07-13T11:29:44;27.00;97.50
15111;DHT22;7656;51.954;7.998;2023-07-13T11:34:15;26.90;96.40
15111;DHT22;7656;51.954;7.998;2023-07-13T11:43:06;26.70;97.30
15111;DHT22;7656;51.954;7.998;2023-07-13T11:51:52;26.80;96.70
15111;DHT22;7656;51.954;7.998;2023-07-13T11:56:17;27.00;96.00
15111;DHT22;7656;51.954;7.998;2023-07-13T12:00:38;26.30;96.70
15111;DHT22;7656;51.954;7.998;2023-07-13T12:05:03;26.60;97.70
15111;DHT22;7656;51.954;7.998;2023-07-13T12:09:27;27.00;96.60
15111;DHT22;7656;51.954;7.998;2023-07-13T12:45:03;26.90;95.60
15111;DHT22;7656;51.954;7.998;2023-07-13T12:49:33;26.40;97.20
15111;DHT22;7656;51.954;7.998;2023-07-13T12:54:15;26.50;97.30
15111;DHT22;7656;51.954;7.998;2023-07-13T12:58:41;26.80;96.40
15111;DHT22;7656;51.954;7.998;2023-07-13T13:03:21;26.40;96.90
15111;DHT22;7656;51.954;7.998;2023-07-13T13:07:45;25.80;97.20
15111;DHT22;7656;51.954;7.998;2023-07-13T13:12:08;25.40;97.90
15111;DHT22;7656;51.954;7.998;2023-07-13T13:16:46;24.60;99.90
15111;DHT22;7656;51.954;7.998;2023-07-13T13:21:11;24.40;99.90
15111;DHT22;7656;51.954;7.998;2023-07-13T13:25:32;24.10;99.90
15111;DHT22;7656;51.954;7.998;2023-07-13T13:29:53;24.90;99.90
15111;DHT22;7656;51.954;7.998;2023-07-13T13:34:16;25.10;99.90
15111;DHT22;7656;51.954;7.998;2023-07-13T13:38:38;24.90;99.90
15111;DHT22;7656;51.954;7.998;2023-07-13T13:43:00;23.80;99.90
15111;DHT22;7656;51.954;7.998;2023-07-13T13:47:41;22.80;99.90
15111;DHT22;7656;51.954;7.998;2023-07-13T13:52:03;22.80;99.90
15111;DHT22;7656;51.954;7.998;2023-07-13T13:56:25;23.20;99.90
15111;DHT22;7656;51.954;7.998;2023-07-13T14:00:47;23.80;99.90
15111;DHT22;7656;51.954;7.998;2023-07-13T14:05:12;23.90;99.90
15111;DHT22;7656;51.954;7.998;2023-07-13T14:09:33;23.90;99.90
15111;DHT22;7656;51.954;7.998;2023-07-13T14:13:57;23.60;99.90
15111;DHT22;7656;51.954;7.998;2023-07-13T14:18:20;22.70;99.90
15111;DHT22;7656;51.954;7.998;2023-07-13T14:22:41;22.00;99.90
15111;DHT22;7656;51.954;7.998;2023-07-13T14:27:05;21.50;99.90
15111;DHT22;7656;51.954;7.998;2023-07-13T14:31:28;21.10;99.90
15111;DHT22;7656;51.954;7.998;2023-07-13T14:35:50;20.80;99.90
15111;DHT22;7656;51.954;7.998;2023-07-13T14:40:23;20.40;99.90
15111;DHT22;7656;51.954;7.998;2023-07-13T14:44:50;20.20;99.90
15111;DHT22;7656;51.954;7.998;2023-07-13T14:49:16;20.10;99.90
15111;DHT22;7656;51.954;7.998;2023-07-13T14:53:52;20.20;99.90
15111;DHT22;7656;51.954;7.998;2023-07-13T14:58:13;20.20;99.90
15111;DHT22;7656;51.954;7.998;2023-07-13T15:02:35;20.30;99.90
15111;DHT22;7656;51.954;7.998;2023-07-13T15:07:01;20.40;99.90
15111;DHT22;7656;51.954;7.998;2023-07-13T15:11:23;20.40;99.90
15111;DHT22;7656;51.954;7.998;2023-07-13T15:15:51;20.40;99.90
15111;DHT22;7656;51.954;7.998;2023-07-13T15:20:21;20.40;99.90
15111;DHT22;7656;51.954;7.998;2023-07-13T15:24:47;19.90;99.90
15111;DHT22;7656;51.954;7.998;2023-07-13T15:29:08;20.00;99.90
15111;DHT22;7656;51.954;7.998;2023-07-13T15:33:30;20.30;99.90
15111;DHT22;7656;51.954;7.998;2023-07-13T15:37:51;21.00;99.90
15111;DHT22;7656;51.954;7.998;2023-07-13T15:42:17;21.80;99.90
15111;DHT22;7656;51.954;7.998;2023-07-13T15:46:39;21.90;99.90
15111;DHT22;7656;51.954;7.998;2023-07-13T15:51:02;22.10;99.90
15111;DHT22;7656;51.954;7.998;2023-07-13T15:55:24;22.60;99.90
15111;DHT22;7656;51.954;7.998;2023-07-13T15:59:45;22.60;99.90
15111;DHT22;7656;51.954;7.998;2023-07-13T16:04:07;22.90;99.90
15111;DHT22;7656;51.954;7.998;2023-07-13T16:08:31;23.00;99.90
15111;DHT22;7656;51.954;7.998;2023-07-13T16:12:53;22.80;99.90
15111;DHT22;7656;51.954;7.998;2023-07-13T16:26:32;23.50;99.90
15111;DHT22;7656;51.954;7.998;2023-07-13T16:31:00;23.50;99.90
15111;DHT22;7656;51.954;7.998;2023-07-13T16:35:25;23.30;99.90
15111;DHT22;7656;51.954;7.998;2023-07-13T16:39:52;23.30;99.90
15111;DHT22;7656;51.954;7.998;2023-07-13T16:44:17;23.30;99.90
15111;DHT22;7656;51.954;7.998;2023-07-13T16:48:41;23.30;99.90
15111;DHT22;7656;51.954;7.998;2023-07-13T16:53:02;22.90;99.90
15111;DHT22;7656;51.954;7.998;2023-07-13T16:57:32;22.90;99.90
15111;DHT22;7656;51.954;7.998;2023-07-13T17:01:54;22.80;99.90
15111;DHT22;7656;51.954;7.998;2023-07-13T17:06:23;22.60;99.90
15111;DHT22;7656;51.954;7.998;2023-07-13T17:10:45;22.60;99.90
15111;DHT22;7656;51.954;7.998;2023-07-13T17:15:09;22.60;99.90
15111;DHT22;7656;51.954;7.998;2023-07-13T17:19:30;22.50;99.90
15111;DHT22;7656;51.954;7.998;2023-07-13T17:23:53;22.00;99.90
15111;DHT22;7656;51.954;7.998;2023-07-13T17:28:15;21.90;99.90
15111;DHT22;7656;51.954;7.998;2023-07-13T17:32:36;21.90;99.90
15111;DHT22;7656;51.954;7.998;2023-07-13T17:36:57;21.80;99.90
15111;DHT22;7656;51.954;7.998;2023-07-13T17:41:20;21.50;99.90
15111;DHT22;7656;51.954;7.998;2023-07-13T17:45:42;21.40;99.90
15111;DHT22;7656;51.954;7.998;2023-07-13T17:50:13;21.40;99.90
15111;DHT22;7656;51.954;7.998;2023-07-13T17:54:36;21.40;99.90
15111;DHT22;7656;51.954;7.998;2023-07-13T17:58:57;21.30;99.90
15111;DHT22;7656;51.954;7.998;2023-07-13T18:03:22;21.30;99.90
15111;DHT22;7656;51.954;7.998;2023-07-13T18:07:49;21.10;99.90
15111;DHT22;7656;51.954;7.998;2023-07-13T18:12:10;20.80;99.90
15111;DHT22;7656;51.954;7.998;2023-07-13T18:16:32;20.50;99.90
15111;DHT22;7656;51.954;7.998;2023-07-13T18:20:54;20.60;99.90
15111;DHT22;7656;51.954;7.998;2023-07-13T18:25:18;20.40;99.90
15111;DHT22;7656;51.954;7.998;2023-07-13T18:29:40;20.20;99.90
15111;DHT22;7656;51.954;7.998;2023-07-13T18:34:03;20.10;99.90
15111;DHT22;7656;51.954;7.998;2023-07-13T18:38:25;20.20;99.90
15111;DHT22;7656;51.954;7.998;2023-07-13T18:42:53;20.10;99.90
15111;DHT22;7656;51.954;7.998;2023-07-13T18:47:20;20.00;99.90
15111;DHT22;7656;51.954;7.998;2023-07-13T18:51:43;19.90;99.90
15111;DHT22;7656;51.954;7.998;2023-07-13T18:56:07;20.10;99.90
15111;DHT22;7656;51.954;7.998;2023-07-13T19:00:32;20.30;99.90
15111;DHT22;7656;51.954;7.998;2023-07-13T19:04:53;20.20;99.90
15111;DHT22;7656;51.954;7.998;2023-07-13T19:09:14;20.20;99.90
15111;DHT22;7656;51.954;7.998;2023-07-13T19:13:35;19.90;99.90
15111;DHT22;7656;51.954;7.998;2023-07-13T19:18:00;19.90;99.90
15111;DHT22;7656;51.954;7.998;2023-07-13T19:22:23;19.90;99.90
15111;DHT22;7656;51.954;7.998;2023-07-13T19:26:45;19.90;99.90
15111;DHT22;7656;51.954;7.998;2023-07-13T19:31:18;19.60;99.90
15111;DHT22;7656;51.954;7.998;2023-07-13T19:35:42;19.50;99.90
15111;DHT22;7656;51.954;7.998;2023-07-13T19:40:14;19.50;99.90
15111;DHT22;7656;51.954;7.998;2023-07-13T19:44:38;19.60;99.90
15111;DHT22;7656;51.954;7.998;2023-07-13T19:49:01;19.40;99.90
15111;DHT22;7656;51.954;7.998;2023-07-13T19:53:23;19.50;99.90
15111;DHT22;7656;51.954;7.998;2023-07-13T19:57:44;19.30;99.90
15111;DHT22;7656;51.954;7.998;2023-07-13T20:02:06;19.00;99.90
15111;DHT22;7656;51.954;7.998;2023-07-13T20:06:30;18.80;99.90
15111;DHT22;7656;51.954;7.998;2023-07-13T20:10:58;18.80;99.90
15111;DHT22;7656;51.954;7.998;2023-07-13T20:15:21;18.50;99.90
15111;DHT22;7656;51.954;7.998;2023-07-13T20:19:44;18.40;99.90
15111;DHT22;7656;51.954;7.998;2023-07-13T20:24:17;18.40;99.90
15111;DHT22;7656;51.954;7.998;2023-07-13T20:28:39;18.10;99.90
15111;DHT22;7656;51.954;7.998;2023-07-13T20:33:02;18.10;99.90
15111;DHT22;7656;51.954;7.998;2023-07-13T20:37:30;18.20;99.90
15111;DHT22;7656;51.954;7.998;2023-07-13T20:41:52;18.20;99.90
15111;DHT22;7656;51.954;7.998;2023-07-13T20:46:16;18.00;99.90
15111;DHT22;7656;51.954;7.998;2023-07-13T20:50:38;17.70;99.90
15111;DHT22;7656;51.954;7.998;2023-07-13T20:54:59;17.50;99.90
15111;DHT22;7656;51.954;7.998;2023-07-13T20:59:22;17.40;99.90
15111;DHT22;7656;51.954;7.998;2023-07-13T21:03:44;17.50;99.90
15111;DHT22;7656;51.954;7.998;2023-07-13T21:08:17;17.40;99.90
15111;DHT22;7656;51.954;7.998;2023-07-13T21:12:40;17.50;99.90
15111;DHT22;7656;51.954;7.998;2023-07-13T21:17:01;17.40;99.90
15111;DHT22;7656;51.954;7.998;2023-07-13T21:21:23;17.30;99.90
15111;DHT22;7656;51.954;7.998;2023-07-13T21:25:45;17.30;99.90
15111;DHT22;7656;51.954;7.998;2023-07-13T21:30:08;17.20;99.90
15111;DHT22;7656;51.954;7.998;2023-07-13T21:34:33;17.00;99.90
15111;DHT22;7656;51.954;7.998;2023-07-13T21:38:59;16.80;99.90
15111;DHT22;7656;51.954;7.998;2023-07-13T21:43:22;16.80;99.90
15111;DHT22;7656;51.954;7.998;2023-07-13T21:47:43;16.80;99.90
15111;DHT22;7656;51.954;7.998;2023-07-13T21:52:14;16.80;99.90
15111;DHT22;7656;51.954;7.998;2023-07-13T21:56:36;16.60;99.90
15111;DHT22;7656;51.954;7.998;2023-07-13T22:00:58;16.60;99.90
15111;DHT22;7656;51.954;7.998;2023-07-13T22:05:20;16.40;99.90
15111;DHT22;7656;51.954;7.998;2023-07-13T22:09:42;16.40;99.90
15111;DHT22;7656;51.954;7.998;2023-07-13T22:14:03;16.30;99.90
15111;DHT22;7656;51.954;7.998;2023-07-13T22:18:25;16.30;99.90
15111;DHT22;7656;51.954;7.998;2023-07-13T22:22:47;16.20;99.90
15111;DHT22;7656;51.954;7.998;2023-07-13T22:27:10;16.10;99.90
15111;DHT22;7656;51.954;7.998;2023-07-13T22:31:31;15.80;99.90
15111;DHT22;7656;51.954;7.998;2023-07-13T22:35:52;15.70;99.90
15111;DHT22;7656;51.954;7.998;2023-07-13T22:40:15;15.80;99.90
15111;DHT22;7656;51.954;7.998;2023-07-13T22:44:37;15.80;99.90
15111;DHT22;7656;51.954;7.998;2023-07-13T22:49:01;15.80;99.90
15111;DHT22;7656;51.954;7.998;2023-07-13T22:53:35;15.80;99.90
15111;DHT22;7656;51.954;7.998;2023-07-13T22:57:56;15.70;99.90
15111;DHT22;7656;51.954;7.998;2023-07-13T23:02:17;15.90;99.90
15111;DHT22;7656;51.954;7.998;2023-07-13T23:06:39;16.10;99.90
15111;DHT22;7656;51.954;7.998;2023-07-13T23:11:00;16.20;99.90
15111;DHT22;7656;51.954;7.998;2023-07-13T23:15:24;15.90;99.90
15111;DHT22;7656;51.954;7.998;2023-07-13T23:19:45;15.90;99.90
15111;DHT22;7656;51.954;7.998;2023-07-13T23:24:12;16.00;99.90
15111;DHT22;7656;51.954;7.998;2023-07-13T23:28:34;15.90;99.90
15111;DHT22;7656;51.954;7.998;2023-07-13T23:33:00;15.70;99.90
15111;DHT22;7656;51.954;7.998;2023-07-13T23:37:23;15.60;99.90
15111;DHT22;7656;51.954;7.998;2023-07-13T23:41:45;15.80;99.90
15111;DHT22;7656;51.954;7.998;2023-07-13T23:46:43;15.60;99.90
15111;DHT22;7656;51.954;7.998;2023-07-13T23:51:10;15.70;99.90
15111;DHT22;7656;51.954;7.998;2023-07-13T23:55:33;15.80;99.90
15111;DHT22;7656;51.954;7.998;2023-07-13T23:59:54;15.80;99.90
